CheckWX is a tool to help pilots better visualize weather data.  It is not intended as a substitute for an official pre-flight weather briefing.

21:20:50 UTC

KRYY TAF
Cobb County International-McCollum Field Airport
Atlanta, Georgia, USA
KRYY 161731Z 1618/1718 25006KT P6SM SCT050 FM162000 23007KT P6SM BKN050 FM170200 19004KT P6SM FEW250 FM171500 25003KT P6SM SCT030 FM171700 21005KT P6SM BKN040

Jun-16@
18:00 UTC

Jun-16 @ 18:00 UTC

Jun-16@
20:00 UTC

Jun-16 @ 20:00 UTC

KRYY 161731Z 1618/1718 25006KT P6SM SCT050

Expired

Wind
  • 250° at 6 KTS
Cloud Levels
  • Scattered at 5,000' AGL

Jun-16@
20:00 UTC

Jun-16 @ 20:00 UTC

Jun-17@
02:00 UTC

Jun-17 @ 02:00 UTC

FM162000 23007KT P6SM BKN050

From

From Standard forecast or significant change

Wind
  • 230° at 7 KTS
Cloud Levels
  • Broken at 5,000' AGL

Jun-17@
02:00 UTC

Jun-17 @ 02:00 UTC

Jun-17@
15:00 UTC

Jun-17 @ 15:00 UTC

FM170200 19004KT P6SM FEW250

From

From Standard forecast or significant change

Wind
  • 190° at 4 KTS
Cloud Levels
  • Few at 25,000' AGL

Jun-17@
15:00 UTC

Jun-17 @ 15:00 UTC

Jun-17@
17:00 UTC

Jun-17 @ 17:00 UTC

FM171500 25003KT P6SM SCT030

From

From Standard forecast or significant change

Wind
  • 250° at 3 KTS
Cloud Levels
  • Scattered at 3,000' AGL

Jun-17@
17:00 UTC

Jun-17 @ 17:00 UTC

Jun-17@
18:00 UTC

Jun-17 @ 18:00 UTC

FM171700 21005KT P6SM BKN040

From

From Standard forecast or significant change

Wind
  • 210° at 5 KTS
Cloud Levels
  • Broken at 4,000' AGL